Manly, Iowa
Current Conditions -  °F | °C
As of 12:53 AM on Saturday 20 Dec 2014 (Local Time) from KMCW Reporting Station
Haze Haze  
Wind Chill: 19°   Ceiling: 600
Heat Index: 29°   Visibility: 4mi
Dew Point: 26°   Wind: 12mph
Humidity: 89%   Direction: 170°S
Pressure: 30.18"   Gusts: NA
Location:  43.29°N, 93.2°W
Report Text: KMCW 200653Z AUTO 17010KT 4SM BR OVC006 M02/M03 A3018 RMK AO2 SLP229 T10171033
Loading
Personal Weather Stations






























Interactive Weather Map New forecast layout! Learn more

10-Day Weather Forecast

Advertisements
Track Severe Weather on mobile